»·PEaware :: N58EU KVNY-KSBP

N58EU :: KVNY-KSBP

FLIGHT INFORMATION

Flight Status: Arrived
Operator: Privately registered:
United States
More flights under this callsign
Pilot: Jeff C. (26289)
Aircraft: BEECH AIRCRAFT BARON
(BE58)
More flights by this aircraft type
Origin: KVNY Van Nuys
United States
Destination: KSBP San Luis Co Regl
United States
More flights between these airports :: More routes between these airports
Route: +CANOG3 FIM V386 RZS V12 GVO T261 FABEG
File this flight plan on PilotEdge
Remarks:
Altitude:
(Current/Filed)
8,000ft
Speed:
(Current/Filed)
180kts
Departed: 07-Feb-20 02:58 PM
Arrived: 07-Feb-20 03:50 PM
Distance/Time
Traveled:
123nm/0:51
Distance/Time
To Go:
Arrived

Flight Plot

Page will automatically refresh every two minutes.

Flight plan parsing failed; only flown route is shown


Map Options




Map Legend


Flown Route
Filed Route
Departure Airport
Arrival Airport
Navaid (VOR, NDB)
Fix

Horizontal Profiles

Position Reports

Time Latitude Longitude Heading Altitude Ground
Speed
07-Feb-20 14:29 34.210371 -118.491930 85 805ft 0kts
07-Feb-20 14:30 34.210371 -118.491930 85 805ft 0kts
07-Feb-20 14:31 34.210371 -118.491930 85 805ft 0kts
07-Feb-20 14:32 34.210371 -118.491930 85 805ft 0kts
07-Feb-20 14:33 34.210371 -118.491930 85 805ft 0kts
07-Feb-20 14:34 34.210371 -118.491930 85 805ft 0kts
07-Feb-20 14:35 34.210371 -118.491930 85 805ft 0kts
07-Feb-20 14:36 34.210371 -118.491930 85 805ft 0kts
07-Feb-20 14:37 34.210371 -118.491930 85 805ft 0kts
07-Feb-20 14:38 34.210448 -118.491760 34 805ft 2kts
07-Feb-20 14:39 34.211868 -118.491738 355 805ft 7kts
07-Feb-20 14:40 34.213241 -118.491871 357 805ft 5kts
07-Feb-20 14:41 34.214865 -118.492035 351 805ft 5kts
07-Feb-20 14:42 34.216463 -118.492245 355 805ft 5kts
07-Feb-20 14:43 34.218112 -118.492330 354 805ft 5kts
07-Feb-20 14:44 34.219062 -118.492441 51 805ft 2kts
07-Feb-20 14:45 34.219053 -118.492312 114 805ft 0kts
07-Feb-20 14:46 34.219053 -118.492312 114 805ft 0kts
07-Feb-20 14:47 34.219053 -118.492312 114 805ft 0kts
07-Feb-20 14:48 34.219053 -118.492312 114 805ft 0kts
07-Feb-20 14:49 34.219053 -118.492312 114 805ft 0kts
07-Feb-20 14:50 34.219053 -118.492311 114 805ft 0kts
07-Feb-20 14:51 34.218795 -118.492228 166 805ft 1kts
07-Feb-20 14:52 34.218741 -118.492147 101 805ft 0kts
07-Feb-20 14:53 34.218741 -118.492147 101 805ft 0kts
07-Feb-20 14:54 34.218741 -118.492145 100 805ft 0kts
07-Feb-20 14:55 34.218741 -118.492144 100 805ft 0kts
07-Feb-20 14:56 34.218741 -118.492144 100 805ft 0kts
07-Feb-20 14:57 34.213507 -118.490717 174 805ft 98kts
07-Feb-20 14:58 34.183542 -118.493788 217 2218ft 126kts
07-Feb-20 14:59 34.157067 -118.522091 224 3398ft 131kts
07-Feb-20 15:00 34.139343 -118.561252 268 4045ft 163kts
07-Feb-20 15:02 34.165899 -118.599737 347 4820ft 162kts
07-Feb-20 15:03 34.208472 -118.611049 348 5961ft 150kts
07-Feb-20 15:04 34.247614 -118.621642 349 7140ft 140kts
07-Feb-20 15:05 34.276092 -118.647166 279 8025ft 162kts
07-Feb-20 15:06 34.289080 -118.705444 296 8019ft 199kts
07-Feb-20 15:07 34.312042 -118.765998 297 8015ft 195kts
07-Feb-20 15:08 34.334926 -118.825091 297 8018ft 192kts
07-Feb-20 15:09 34.356304 -118.884310 286 8019ft 192kts
07-Feb-20 15:10 34.368208 -118.947393 285 8019ft 193kts
07-Feb-20 15:11 34.379411 -119.010945 284 8018ft 191kts
07-Feb-20 15:12 34.390404 -119.073976 284 8010ft 190kts
07-Feb-20 15:13 34.401250 -119.136480 284 8012ft 190kts
07-Feb-20 15:14 34.412099 -119.199141 284 8014ft 190kts
07-Feb-20 15:15 34.422936 -119.261918 284 8017ft 190kts
07-Feb-20 15:16 34.433761 -119.324747 284 8016ft 190kts
07-Feb-20 15:17 34.444523 -119.387432 284 8014ft 189kts
07-Feb-20 15:18 34.455178 -119.449734 283 8011ft 189kts
07-Feb-20 15:19 34.465814 -119.512137 283 8008ft 188kts
07-Feb-20 15:20 34.476329 -119.574128 283 8008ft 188kts
07-Feb-20 15:21 34.486812 -119.636077 283 8008ft 187kts
07-Feb-20 15:21 34.495445 -119.687234 283 8009ft 188kts
07-Feb-20 15:22 34.505917 -119.749440 283 8009ft 188kts
07-Feb-20 15:24 34.513074 -119.823211 276 8006ft 189kts
07-Feb-20 15:24 34.516777 -119.876226 276 8003ft 189kts
07-Feb-20 15:25 34.521142 -119.940053 276 7999ft 190kts
07-Feb-20 15:26 34.525475 -120.004015 277 7995ft 190kts
07-Feb-20 15:28 34.532311 -120.078345 296 7990ft 188kts
07-Feb-20 15:28 34.561567 -120.116724 320 7990ft 187kts
07-Feb-20 15:29 34.602281 -120.155988 322 7990ft 187kts
07-Feb-20 15:30 34.643815 -120.194388 323 7990ft 187kts
07-Feb-20 15:31 34.685283 -120.232589 323 7990ft 187kts
07-Feb-20 15:32 34.726616 -120.270700 323 7994ft 187kts
07-Feb-20 15:33 34.767644 -120.308528 323 8002ft 178kts
07-Feb-20 15:34 34.805605 -120.343673 324 8014ft 167kts
07-Feb-20 15:35 34.842513 -120.377838 324 8021ft 166kts
07-Feb-20 15:36 34.878978 -120.411615 324 8025ft 163kts
07-Feb-20 15:37 34.917480 -120.447299 324 7392ft 180kts
07-Feb-20 15:38 34.957886 -120.484808 324 6684ft 183kts
07-Feb-20 15:39 34.997890 -120.520899 336 5959ft 174kts
07-Feb-20 15:40 35.043323 -120.509442 30 5245ft 175kts
07-Feb-20 15:41 35.082074 -120.475108 33 4275ft 165kts
07-Feb-20 15:42 35.115926 -120.444476 29 4012ft 143kts
07-Feb-20 15:43 35.140693 -120.462372 281 4012ft 125kts
07-Feb-20 15:44 35.155204 -120.499030 307 3747ft 120kts
07-Feb-20 15:45 35.174164 -120.530762 309 3037ft 112kts
07-Feb-20 15:46 35.191853 -120.561566 304 2331ft 111kts
07-Feb-20 15:47 35.210087 -120.593527 314 1054ft 95kts
07-Feb-20 15:48 35.223611 -120.616929 307 637ft 83kts
07-Feb-20 15:49 35.235207 -120.637180 299 215ft 20kts
07-Feb-20 15:50 35.237456 -120.639917 7 215ft 0kts
07-Feb-20 15:51 35.238038 -120.640345 347 215ft 3kts
07-Feb-20 15:52 35.238548 -120.639786 2 215ft 0kts

Navigation Log

Ident Type
Flight plan parsing failed, navigation log unavailable